Virgin Islands National Park, VI

11:26 PM AST on August 03, 2015 (GMT -0400)
NorthSide | | Change Station
CLOSE
Current Station
Personal Weather Station
Location: St Thomas, VI
Elevation: 728 ft
Nearby Weather Stations

Elev 728 ft 18.36 °N, 64.94 °W | Updated 2 seconds ago

Scattered Clouds
Scattered Clouds
80.1 °F
Feels Like 85 °F
N
7.0
Wind Variable Wind from ESE
Gusts 15.0 mph

Today
High -- | Low -- °F
--% Chance of Precip.
Yesterday
High -- | Low -- °F
Precip. -- in
5:58 AM 6:53 PM
Waning Gibbous, 81% visible
Pressure 30.07 in
Visibility 10.0 miles
Clouds Scattered Clouds 3700 ft
Heat Index 85 °F
Dew Point 75 °F
Humidity 84%
Rainfall in
Snow Depth Not available.
UV 0 out of 12
Pollen Not available.
Air Quality Not available.
Flu Activity Not available.
METAR TIST 040253Z 10012KT 10SM SCT037 29/23 A3006 RMK AO2 SLP181 T02890233 51017

More Conditions Fewer Conditions

Pressure 30.07 in
Visibility 10.0 miles
Clouds Scattered Clouds 3700 ft
Heat Index 85 °F
Dew Point 75 °F
Humidity 84%
Rainfall in
Snow Depth Not available.
UV 0 out of 12
Pollen Not available.
Air Quality Not available.
Flu Activity Not available.
METAR TIST 040253Z 10012KT 10SM SCT037 29/23 A3006 RMK AO2 SLP181 T02890233 51017

More Conditions Fewer Conditions

10-Day Weather Forecast

×

Almanac

Astronomy

Aug. 03, 2015 Rise Set
Actual Time
Civil Twilight
Nautical Twilight
Astronomical Twilight
Moon
Length of Visible Light
Length of Day
Tomorrow will be .
, % of the Moon is Illuminated

Today's Extremes

State Highs State Lows

Community

WunderPhotos

Upload Photos

1,843,838 photos uploaded!

WunderBlogs® & News

Nearby

Air Quality

  Air Quality AQ Index Pollutant
Not available.

Snow Depth

Station Depth Elevation

Earthquake Activity

City Distance Mag. Time & Date
Minimum magnitude displayed is 2.5.

Coastal Water Temperatures

Place Temperature

Stations

Nearby Weather Stations

Station Location Temp. Windchill Dew Point Humidity Wind Precip. Elev Updated Type